Time;durP1;ratioP1;P1;durP2;ratioP2;P2;SDS_P1;SDS_P2;PMS_P1;PMS_P2;Temp;Humidity;BMP_temperature;BMP_pressure;BME280_temperature;BME280_humidity;BME280_pressure;Samples;Min_cycle;Max_cycle;Signal;HPM_P1;HPM_P2
2022/06/07 00:02:26;;;;;;;;;;;;;;;21.74;55.38;101030.63;5023921;28;98301;-77
2022/06/07 00:04:53;;;;;;;;;;;;;;;21.87;55.26;101036.78;5015802;28;97935;-77
2022/06/07 00:07:20;;;;;;;;;;;;;;;21.83;54.88;101038.00;5031372;28;99179;-78
2022/06/07 00:09:46;;;;;;;;;;;;;;;21.79;55.12;101036.50;5027223;28;96654;-78
2022/06/07 00:12:13;;;;;;;;;;;;;;;21.73;55.36;101031.59;5024147;28;97982;-78
2022/06/07 00:14:39;;;;;;;;;;;;;;;21.50;56.21;101028.97;5024481;28;97206;-77
2022/06/07 00:17:07;;;;;;;;;;;;;;;21.71;55.47;101038.94;5021346;28;96875;-76
2022/06/07 00:19:33;;;;;;;;;;;;;;;21.53;56.04;101029.59;5017599;28;96876;-80
2022/06/07 00:22:00;;;;;;;;;;;;;;;21.54;56.16;101027.75;5023105;28;99074;-81
2022/06/07 00:24:26;;;;;;;;;;;;;;;21.59;55.76;101025.59;5012452;27;99670;-82
2022/06/07 00:26:53;;;;;;;;;;;;;;;21.09;57.23;101022.19;5013637;28;97060;-81
2022/06/07 00:29:20;;;;;;;;;;;;;;;21.30;56.93;101019.75;5021995;28;96892;-80
2022/06/07 00:31:46;;;;;;;;;;;;;;;21.29;57.41;101028.78;5022577;28;97836;-82
2022/06/07 00:34:14;;;;;;;;;;;;;;;21.34;56.92;101026.59;5013921;28;98872;-80
2022/06/07 00:36:41;;;;;;;;;;;;;;;21.44;56.77;101023.09;5026904;28;97252;-79
2022/06/07 00:39:11;;;;;;;;;;;;;;;21.48;56.60;101024.56;5016641;28;96666;-76
2022/06/07 00:41:37;;;;;;;;;;;;;;;21.51;56.42;101017.25;5023235;28;98899;-77
2022/06/07 00:44:24;;;;;;;;;;;;;;;21.73;55.49;101006.53;5012518;28;98787;-76
2022/06/07 00:46:50;;;;;;;;;;;;;;;21.48;56.27;101012.97;5017357;28;97651;-76
2022/06/07 00:49:19;;;;;;;;;;;;;;;21.90;55.13;101024.06;5002909;28;96853;-77
2022/06/07 00:51:46;;;;;;;;;;;;;;;21.64;55.28;101013.50;5006955;28;98826;-77
2022/06/07 00:54:19;;;;;;;;;;;;;;;21.56;55.85;101018.63;5013864;28;97949;-76
2022/06/07 00:56:45;;;;;;;;;;;;;;;21.31;56.31;101025.00;5014938;28;96683;-76
2022/06/07 00:59:12;;;;;;;;;;;;;;;21.59;55.87;101015.69;5020118;28;98397;-79
2022/06/07 01:01:38;;;;;;;;;;;;;;;21.12;57.04;101018.41;5021017;28;96849;-79
2022/06/07 01:04:04;;;;;;;;;;;;;;;21.62;55.91;101010.06;5004023;28;101860;-80
2022/06/07 01:12:02;;;;;;;;;;;;;;;20.97;57.76;101005.16;5011281;28;97168;-79
2022/06/07 01:14:28;;;;;;;;;;;;;;;21.24;57.15;101010.31;5010648;28;98979;-80
2022/06/07 01:16:54;;;;;;;;;;;;;;;21.11;57.19;101009.50;5016599;28;98516;-80
2022/06/07 01:19:21;;;;;;;;;;;;;;;21.63;55.57;101009.09;5008309;28;97278;-78
2022/06/07 01:21:48;;;;;;;;;;;;;;;21.40;55.97;101004.63;5008732;28;99173;-79
2022/06/07 01:24:16;;;;;;;;;;;;;;;21.61;55.58;101002.13;5009934;28;98343;-80
2022/06/07 01:26:42;;;;;;;;;;;;;;;21.33;56.28;100992.66;5016012;28;96865;-78
2022/06/07 01:29:09;;;;;;;;;;;;;;;20.95;57.24;101001.72;5014623;28;96824;-78
2022/06/07 01:31:35;;;;;;;;;;;;;;;20.98;57.44;100992.59;5012978;28;101412;-79
2022/06/07 01:34:02;;;;;;;;;;;;;;;21.15;56.96;100985.94;5006400;28;98222;-78
2022/06/07 01:36:28;;;;;;;;;;;;;;;20.93;57.81;100990.25;5023040;28;97137;-78
2022/06/07 01:44:20;;;;;;;;;;;;;;;20.90;57.30;100981.56;5018499;28;97067;-80
2022/06/07 01:46:46;;;;;;;;;;;;;;;20.80;57.47;100981.41;5007910;28;96781;-80
2022/06/07 01:49:12;;;;;;;;;;;;;;;20.65;58.42;100985.22;5011273;28;96967;-79
2022/06/07 01:51:38;;;;;;;;;;;;;;;20.82;58.29;100983.94;5015078;28;99466;-79
2022/06/07 01:54:06;;;;;;;;;;;;;;;20.64;58.98;100989.72;5012867;28;97851;-79
2022/06/07 01:56:32;;;;;;;;;;;;;;;20.82;58.42;100982.13;5006615;28;98212;-79
2022/06/07 01:58:58;;;;;;;;;;;;;;;20.59;58.56;100980.28;5009403;28;97028;-80
2022/06/07 02:01:24;;;;;;;;;;;;;;;20.75;58.71;100990.75;5011454;28;99080;-78
2022/06/07 02:03:51;;;;;;;;;;;;;;;20.70;58.10;100993.78;5008151;28;98053;-80
2022/06/07 02:06:17;;;;;;;;;;;;;;;20.92;57.80;100991.22;5005188;28;97228;-79
2022/06/07 02:08:44;;;;;;;;;;;;;;;20.77;58.07;100986.97;5005410;28;98264;-79
2022/06/07 02:11:13;;;;;;;;;;;;;;;20.84;57.55;100984.69;5020737;28;98891;-80
2022/06/07 02:13:39;;;;;;;;;;;;;;;21.21;56.60;100985.50;5007640;28;97628;-81
2022/06/07 02:16:06;;;;;;;;;;;;;;;21.18;56.14;100980.38;5009835;28;97173;-80
2022/06/07 02:18:32;;;;;;;;;;;;;;;21.13;56.33;100979.84;5017476;28;97904;-78
2022/06/07 02:21:00;;;;;;;;;;;;;;;20.88;57.34;100975.44;5013122;28;99953;-79
2022/06/07 02:23:26;;;;;;;;;;;;;;;20.90;57.30;100977.03;5008149;28;97710;-78
2022/06/07 02:25:54;;;;;;;;;;;;;;;21.23;56.43;100972.81;5017158;28;96791;-78
2022/06/07 02:28:23;;;;;;;;;;;;;;;21.04;56.46;100973.31;5018687;28;97293;-78
2022/06/07 02:30:50;;;;;;;;;;;;;;;20.79;57.47;100965.38;5009895;28;101079;-78
2022/06/07 02:33:16;;;;;;;;;;;;;;;20.87;57.47;100963.00;5007207;28;99579;-77
2022/06/07 02:35:43;;;;;;;;;;;;;;;20.51;58.10;100961.19;5013183;28;96925;-79
2022/06/07 02:38:10;;;;;;;;;;;;;;;20.54;58.48;100967.22;5014644;28;96907;-78
2022/06/07 02:40:36;;;;;;;;;;;;;;;20.74;58.46;100973.78;5008889;28;99398;-77
2022/06/07 02:43:03;;;;;;;;;;;;;;;20.67;58.61;100978.75;5010377;28;99357;-78
2022/06/07 02:45:31;;;;;;;;;;;;;;;20.93;57.24;100978.66;5005675;28;98748;-79
2022/06/07 02:47:57;;;;;;;;;;;;;;;20.86;56.94;100972.88;5010953;28;98838;-78
2022/06/07 02:50:23;;;;;;;;;;;;;;;21.04;56.36;100974.19;5011559;28;98221;-79
2022/06/07 02:52:50;;;;;;;;;;;;;;;20.96;57.22;100981.94;5006561;28;101381;-79
2022/06/07 02:55:16;;;;;;;;;;;;;;;20.98;56.78;100977.31;5020571;28;96828;-78
2022/06/07 02:57:42;;;;;;;;;;;;;;;20.81;57.41;100979.53;5012154;28;96889;-78
2022/06/07 03:00:10;;;;;;;;;;;;;;;20.80;57.52;100978.72;5022086;28;102109;-79
2022/06/07 03:02:38;;;;;;;;;;;;;;;20.86;57.48;100986.31;5010349;28;98770;-78
2022/06/07 03:05:05;;;;;;;;;;;;;;;20.43;58.15;100993.09;5012425;28;96885;-80
2022/06/07 03:07:31;;;;;;;;;;;;;;;20.65;57.73;100990.56;5013377;28;96836;-78
2022/06/07 03:09:57;;;;;;;;;;;;;;;20.77;55.79;100984.28;5006402;28;98923;-79
2022/06/07 03:12:24;;;;;;;;;;;;;;;20.99;54.16;100981.72;5013063;28;98984;-77
2022/06/07 03:14:50;;;;;;;;;;;;;;;20.87;54.46;100984.47;5016206;28;96767;-79
2022/06/07 03:17:16;;;;;;;;;;;;;;;20.95;54.00;100976.69;5009629;28;97117;-78
2022/06/07 03:19:44;;;;;;;;;;;;;;;21.10;53.67;100980.91;5017415;28;98104;-79
2022/06/07 03:22:12;;;;;;;;;;;;;;;21.11;53.51;100981.78;5013800;28;97725;-81
2022/06/07 03:24:39;;;;;;;;;;;;;;;21.05;52.83;100973.22;5020708;28;97224;-79
2022/06/07 03:27:05;;;;;;;;;;;;;;;21.09;53.17;100979.19;5014185;28;97557;-80
2022/06/07 03:29:31;;;;;;;;;;;;;;;21.10;54.35;100975.53;5021286;28;98827;-79
2022/06/07 03:31:58;;;;;;;;;;;;;;;21.09;54.88;100976.50;5001225;28;98663;-79
2022/06/07 03:34:24;;;;;;;;;;;;;;;21.03;53.65;100980.53;5013515;28;97240;-80
2022/06/07 03:36:52;;;;;;;;;;;;;;;21.12;54.32;100981.66;5007443;28;96861;-79
2022/06/07 03:39:18;;;;;;;;;;;;;;;21.13;52.33;100987.91;5017635;28;99486;-79
2022/06/07 03:41:45;;;;;;;;;;;;;;;20.99;54.55;100983.56;5013591;28;99648;-79
2022/06/07 03:44:12;;;;;;;;;;;;;;;21.15;52.82;100991.31;5020706;28;96726;-80
2022/06/07 03:46:41;;;;;;;;;;;;;;;20.88;52.20;100986.16;5012792;28;96802;-80
2022/06/07 03:49:07;;;;;;;;;;;;;;;21.08;51.43;100993.59;5008107;28;98976;-77
2022/06/07 03:51:34;;;;;;;;;;;;;;;21.11;52.68;100992.53;5014124;28;99023;-81
2022/06/07 03:54:02;;;;;;;;;;;;;;;21.11;51.40;100990.69;5015244;28;96952;-81
2022/06/07 03:56:29;;;;;;;;;;;;;;;21.09;51.18;100998.00;5011120;28;96901;-80
2022/06/07 03:58:55;;;;;;;;;;;;;;;21.50;49.59;100997.56;5005848;28;98848;-79
2022/06/07 04:01:23;;;;;;;;;;;;;;;21.44;49.20;100993.53;5017032;28;98814;-80
2022/06/07 04:03:50;;;;;;;;;;;;;;;21.38;49.80;100994.00;5011170;28;96745;-79
2022/06/07 04:06:18;;;;;;;;;;;;;;;21.08;49.71;100993.59;5008026;28;97466;-78
2022/06/07 04:08:44;;;;;;;;;;;;;;;20.97;49.96;101001.63;5010486;28;98855;-77
2022/06/07 04:11:12;;;;;;;;;;;;;;;21.37;49.10;100994.13;5017572;28;98822;-77
2022/06/07 04:13:38;;;;;;;;;;;;;;;21.20;49.38;101003.44;5013378;28;97045;-78
2022/06/07 04:16:05;;;;;;;;;;;;;;;21.14;49.32;100994.97;5012132;28;96942;-76
2022/06/07 04:18:31;;;;;;;;;;;;;;;21.19;49.17;100998.22;5003245;28;98781;-77
2022/06/07 04:20:58;;;;;;;;;;;;;;;21.29;48.33;100994.69;5015556;28;98965;-79
2022/06/07 04:23:24;;;;;;;;;;;;;;;21.18;48.23;100999.19;5010076;28;96904;-79
2022/06/07 04:25:51;;;;;;;;;;;;;;;21.61;47.39;100996.75;5012801;28;96945;-79
2022/06/07 04:28:18;;;;;;;;;;;;;;;22.05;46.32;100996.00;5019885;28;99291;-80
2022/06/07 04:30:45;;;;;;;;;;;;;;;21.81;46.58;100999.59;5004127;28;99255;-79
2022/06/07 04:33:12;;;;;;;;;;;;;;;21.56;46.94;100997.09;5009403;28;97221;-79
2022/06/07 04:35:38;;;;;;;;;;;;;;;21.55;46.80;101002.59;5016584;28;96983;-79
2022/06/07 04:38:05;;;;;;;;;;;;;;;21.12;47.42;101000.47;5007423;27;98545;-78
2022/06/07 04:40:31;;;;;;;;;;;;;;;21.68;46.53;100996.16;5012724;28;99587;-76
2022/06/07 04:42:57;;;;;;;;;;;;;;;21.75;46.25;100997.38;5009579;28;96829;-77
2022/06/07 04:45:25;;;;;;;;;;;;;;;21.55;46.25;100998.06;5009035;28;96757;-77
2022/06/07 04:47:51;;;;;;;;;;;;;;;22.02;45.23;100999.78;5002648;28;98994;-77
2022/06/07 04:50:18;;;;;;;;;;;;;;;22.42;44.44;100997.44;5018347;28;100564;-77
2022/06/07 04:52:45;;;;;;;;;;;;;;;22.73;43.83;100997.66;5001860;28;98723;-77
2022/06/07 04:55:11;;;;;;;;;;;;;;;23.56;42.04;100992.47;5021947;28;96856;-78
2022/06/07 04:57:38;;;;;;;;;;;;;;;25.39;38.08;100988.50;5014761;28;97119;-77
2022/06/07 05:00:05;;;;;;;;;;;;;;;27.74;33.37;100999.56;5007658;28;97647;-78
2022/06/07 05:02:34;;;;;;;;;;;;;;;28.45;31.58;100999.28;5002296;28;96863;-78
2022/06/07 05:05:01;;;;;;;;;;;;;;;29.33;29.90;100995.09;5013143;28;97217;-79
2022/06/07 05:07:28;;;;;;;;;;;;;;;28.91;30.37;100992.50;5002732;28;99018;-77
2022/06/07 05:09:54;;;;;;;;;;;;;;;27.88;31.97;100990.81;5017964;28;97535;-77
2022/06/07 05:12:20;;;;;;;;;;;;;;;26.42;34.81;101000.22;5007602;28;97069;-78
2022/06/07 05:14:47;;;;;;;;;;;;;;;25.07;37.00;100993.38;5011202;28;96934;-77
2022/06/07 05:17:13;;;;;;;;;;;;;;;24.36;38.67;100998.00;5008732;28;99208;-77
2022/06/07 05:19:41;;;;;;;;;;;;;;;24.04;39.17;100998.13;5008101;28;98848;-77
2022/06/07 05:22:07;;;;;;;;;;;;;;;24.12;39.18;101001.00;5000120;28;97028;-78
2022/06/07 05:24:34;;;;;;;;;;;;;;;24.20;39.64;100993.13;5005171;28;96897;-76
2022/06/07 05:27:02;;;;;;;;;;;;;;;24.37;39.30;100992.47;5011585;28;98887;-77
2022/06/07 05:29:32;;;;;;;;;;;;;;;24.42;39.13;100997.44;5018839;28;98084;-78
2022/06/07 05:31:58;;;;;;;;;;;;;;;24.06;39.28;101002.41;5008454;28;98721;-81
2022/06/07 05:34:25;;;;;;;;;;;;;;;24.11;39.45;100997.44;5003489;28;98966;-80
2022/06/07 05:36:52;;;;;;;;;;;;;;;24.15;39.20;101000.75;5026672;28;98093;-77
2022/06/07 05:39:23;;;;;;;;;;;;;;;24.02;39.12;101008.22;5006111;28;98722;-78
2022/06/07 05:41:50;;;;;;;;;;;;;;;24.06;38.52;101013.19;5016422;28;97174;-77
2022/06/07 05:44:16;;;;;;;;;;;;;;;23.83;38.94;101011.63;5007318;28;96929;-78
2022/06/07 05:46:43;;;;;;;;;;;;;;;24.31;38.24;101014.63;5007087;28;98867;-78
2022/06/07 05:49:09;;;;;;;;;;;;;;;24.53;37.94;101018.97;5024668;28;100454;-79
2022/06/07 05:51:36;;;;;;;;;;;;;;;24.58;37.48;101017.56;5018150;28;98828;-77
2022/06/07 05:54:03;;;;;;;;;;;;;;;24.65;37.04;101017.00;5012919;28;97021;-79
2022/06/07 05:56:30;;;;;;;;;;;;;;;24.92;36.79;101015.41;5014422;28;99029;-77
2022/06/07 05:58:56;;;;;;;;;;;;;;;24.89;36.82;101015.66;5005857;28;98970;-78
2022/06/07 06:01:22;;;;;;;;;;;;;;;25.08;36.24;101022.94;5021430;27;97108;-78
2022/06/07 06:03:49;;;;;;;;;;;;;;;25.34;35.46;101029.50;5015850;28;96907;-77
2022/06/07 06:06:15;;;;;;;;;;;;;;;24.26;35.33;101026.81;5009671;28;99000;-78
2022/06/07 06:11:27;;;;;;;;;;;;;;;23.74;37.04;101029.50;5002284;28;96826;-76
2022/06/07 06:13:53;;;;;;;;;;;;;;;24.07;35.97;101023.00;5013817;28;96833;-78
2022/06/07 06:16:21;;;;;;;;;;;;;;;24.25;35.83;101027.81;5010413;28;98267;-78
2022/06/07 06:18:48;;;;;;;;;;;;;;;24.19;36.01;101018.41;5017852;28;99004;-80
2022/06/07 06:21:15;;;;;;;;;;;;;;;24.64;34.92;101024.25;5016305;28;97923;-79
2022/06/07 06:23:41;;;;;;;;;;;;;;;24.23;35.16;101026.09;5017461;27;96844;-79
2022/06/07 06:26:11;;;;;;;;;;;;;;;24.21;34.98;101025.41;5007347;28;98951;-80
2022/06/07 06:28:38;;;;;;;;;;;;;;;24.30;35.39;101025.53;5017794;28;98872;-78
2022/06/07 06:31:05;;;;;;;;;;;;;;;24.14;35.60;101024.19;5019547;28;97318;-78
2022/06/07 06:33:33;;;;;;;;;;;;;;;23.64;36.31;101027.69;5004968;28;96806;-78
2022/06/07 06:35:59;;;;;;;;;;;;;;;24.62;34.92;101028.94;5020081;28;97643;-76
2022/06/07 06:38:25;;;;;;;;;;;;;;;24.45;34.75;101032.28;5017569;28;97742;-78
2022/06/07 06:40:52;;;;;;;;;;;;;;;24.64;34.54;101035.06;5007562;28;98331;-78
2022/06/07 06:43:20;;;;;;;;;;;;;;;24.30;34.62;101030.94;5018517;28;96966;-79
2022/06/07 06:45:48;;;;;;;;;;;;;;;23.48;36.06;101038.09;5020095;28;100000;-83
2022/06/07 06:48:16;;;;;;;;;;;;;;;24.55;34.39;101036.72;5015866;28;97666;-80
2022/06/07 06:50:42;;;;;;;;;;;;;;;24.41;34.55;101037.13;5029454;28;96862;-81
2022/06/07 06:53:09;;;;;;;;;;;;;;;24.72;34.05;101031.66;5020968;28;96677;-81
2022/06/07 06:55:35;;;;;;;;;;;;;;;25.05;33.64;101033.19;5031807;28;98863;-81
2022/06/07 06:58:01;;;;;;;;;;;;;;;25.82;32.52;101034.03;5026085;28;100292;-81
2022/06/07 07:00:28;;;;;;;;;;;;;;;25.97;32.27;101039.84;5026494;28;96793;-81
2022/06/07 07:02:55;;;;;;;;;;;;;;;25.85;32.51;101027.50;5016996;28;96871;-82
2022/06/07 07:05:22;;;;;;;;;;;;;;;25.75;32.52;101027.50;5019735;28;98836;-82
2022/06/07 07:07:48;;;;;;;;;;;;;;;25.94;31.80;101030.16;5006835;28;99389;-83
2022/06/07 07:10:15;;;;;;;;;;;;;;;26.06;31.53;101028.97;5009539;28;97144;-82
2022/06/07 07:12:42;;;;;;;;;;;;;;;26.98;30.03;101020.06;5022070;27;96762;-81
2022/06/07 07:15:11;;;;;;;;;;;;;;;26.87;30.44;101026.50;5015809;28;99477;-82
2022/06/07 07:17:38;;;;;;;;;;;;;;;26.79;29.85;101027.25;5032662;28;98912;-83
2022/06/07 07:20:06;;;;;;;;;;;;;;;26.87;30.17;101029.22;5020968;28;96722;-82
2022/06/07 07:22:33;;;;;;;;;;;;;;;27.16;28.92;101020.91;5019839;27;97150;-82
2022/06/07 07:24:59;;;;;;;;;;;;;;;26.79;30.46;101027.25;5000777;28;97741;-81
2022/06/07 07:27:26;;;;;;;;;;;;;;;26.63;30.28;101027.09;5030870;28;98924;-83
2022/06/07 07:29:52;;;;;;;;;;;;;;;26.38;30.63;101036.75;5005815;28;96789;-80
2022/06/07 07:32:18;;;;;;;;;;;;;;;25.71;31.81;101021.53;5017195;28;96985;-81
2022/06/07 07:34:45;;;;;;;;;;;;;;;25.70;32.77;101014.41;5013958;28;99035;-80
2022/06/07 07:37:12;;;;;;;;;;;;;;;26.03;32.01;101015.75;5005912;28;100800;-82
2022/06/07 07:39:39;;;;;;;;;;;;;;;26.54;30.84;101014.41;5026286;28;96593;-82
2022/06/07 07:42:05;;;;;;;;;;;;;;;26.62;30.89;101008.25;5006122;28;96774;-81
2022/06/07 07:44:31;;;;;;;;;;;;;;;27.00;29.80;100999.91;5035214;28;101147;-81
2022/06/07 07:46:59;;;;;;;;;;;;;;;26.80;29.84;101012.69;5040669;28;98144;-80
2022/06/07 07:49:30;;;;;;;;;;;;;;;27.24;30.37;101002.00;5028874;28;96717;-82
2022/06/07 07:51:57;;;;;;;;;;;;;;;26.06;30.25;101014.59;5034942;28;96659;-80
2022/06/07 07:54:25;;;;;;;;;;;;;;;26.33;30.59;101014.66;5013665;28;99049;-82
2022/06/07 07:56:52;;;;;;;;;;;;;;;27.21;28.75;101008.59;5018942;28;101848;-82
2022/06/07 07:59:20;;;;;;;;;;;;;;;27.76;28.54;101003.78;4999068;28;96915;-82
2022/06/07 08:01:46;;;;;;;;;;;;;;;28.11;27.35;101004.69;5011317;28;96845;-81
2022/06/07 08:04:16;;;;;;;;;;;;;;;28.28;26.64;101006.53;5009741;28;101633;-83
2022/06/07 08:06:42;;;;;;;;;;;;;;;28.45;26.67;100999.28;5016921;28;98912;-81
2022/06/07 08:09:09;;;;;;;;;;;;;;;28.17;27.42;101004.06;5015550;28;96729;-81
2022/06/07 08:11:39;;;;;;;;;;;;;;;28.28;27.07;101000.25;5014695;28;97129;-81
2022/06/07 08:14:06;;;;;;;;;;;;;;;28.90;26.52;100999.81;5015745;28;98514;-83
2022/06/07 08:16:33;;;;;;;;;;;;;;;28.68;25.75;100994.13;5013307;28;98949;-81
2022/06/07 08:18:59;;;;;;;;;;;;;;;28.79;25.19;100991.13;5022551;28;96672;-81
2022/06/07 08:21:26;;;;;;;;;;;;;;;28.87;25.95;100993.84;5023051;28;96747;-81
2022/06/07 08:23:54;;;;;;;;;;;;;;;28.36;25.85;100990.25;5014276;28;97529;-82
2022/06/07 08:26:21;;;;;;;;;;;;;;;27.15;27.48;100987.50;5015604;28;97632;-82
2022/06/07 08:28:49;;;;;;;;;;;;;;;26.40;28.85;101002.22;5011055;28;96840;-81
2022/06/07 08:31:16;;;;;;;;;;;;;;;26.91;28.76;100990.00;5006854;28;96883;-82
2022/06/07 08:39:11;;;;;;;;;;;;;;;27.75;27.42;100990.41;5013215;28;96995;-83
2022/06/07 08:41:41;;;;;;;;;;;;;;;27.13;27.75;100988.66;5020030;28;97099;-81
2022/06/07 08:44:10;;;;;;;;;;;;;;;27.15;27.99;100986.66;5029734;28;101410;-82
2022/06/07 08:46:37;;;;;;;;;;;;;;;27.52;28.14;100987.34;5027310;28;99811;-81
2022/06/07 08:49:05;;;;;;;;;;;;;;;27.58;27.31;100991.28;5039917;28;96719;-82
2022/06/07 08:51:37;;;;;;;;;;;;;;;28.46;26.29;100977.38;5021517;28;96726;-82
2022/06/07 08:54:13;;;;;;;;;;;;;;;28.50;26.40;100977.91;5024600;28;97869;-81
2022/06/07 08:56:40;;;;;;;;;;;;;;;28.12;26.89;100966.50;5004859;28;97986;-84
2022/06/07 08:59:11;;;;;;;;;;;;;;;28.73;25.91;100964.56;5010161;28;97520;-82
2022/06/07 09:01:43;;;;;;;;;;;;;;;28.38;26.81;100965.63;5011838;28;96895;-82
2022/06/07 09:04:15;;;;;;;;;;;;;;;28.31;26.73;100960.00;5011153;28;99344;-83
2022/06/07 09:06:46;;;;;;;;;;;;;;;28.68;26.54;100966.94;5016068;28;99181;-81
2022/06/07 09:09:13;;;;;;;;;;;;;;;28.67;26.05;100955.19;5004257;28;97987;-81
2022/06/07 09:14:26;;;;;;;;;;;;;;;28.27;27.31;100944.19;5025699;28;97164;-81
2022/06/07 09:16:54;;;;;;;;;;;;;;;28.09;27.56;100947.81;5006352;28;100390;-82
2022/06/07 09:19:25;;;;;;;;;;;;;;;27.73;28.44;100944.41;5020184;28;96808;-82
2022/06/07 09:21:53;;;;;;;;;;;;;;;28.23;27.58;100946.38;5019757;28;96822;-81
2022/06/07 09:24:24;;;;;;;;;;;;;;;28.79;26.92;100939.44;5009852;28;99058;-80
2022/06/07 09:26:50;;;;;;;;;;;;;;;27.73;27.97;100943.53;5008574;28;98722;-84
2022/06/07 09:29:18;;;;;;;;;;;;;;;27.96;28.01;100943.84;5021310;28;96987;-82
2022/06/07 09:31:45;;;;;;;;;;;;;;;27.27;28.89;100937.44;5012003;28;96856;-81
2022/06/07 09:34:18;;;;;;;;;;;;;;;27.05;28.84;100927.06;5019794;28;97922;-81
2022/06/07 09:36:47;;;;;;;;;;;;;;;27.01;29.53;100933.81;5027389;28;99222;-81
2022/06/07 09:39:16;;;;;;;;;;;;;;;27.09;28.89;100923.03;5019857;28;97420;-81
2022/06/07 09:41:45;;;;;;;;;;;;;;;27.69;28.50;100928.59;4995697;28;96842;-81
2022/06/07 09:44:15;;;;;;;;;;;;;;;27.96;28.54;100922.97;5015193;28;99168;-82
2022/06/07 09:46:42;;;;;;;;;;;;;;;28.51;27.91;100912.50;5017190;28;101100;-80
2022/06/07 09:49:24;;;;;;;;;;;;;;;28.33;27.98;100919.06;5017372;28;96749;-83
2022/06/07 09:51:52;;;;;;;;;;;;;;;28.57;27.40;100905.53;5014530;28;97236;-81
2022/06/07 09:54:19;;;;;;;;;;;;;;;28.22;27.89;100906.66;5001856;28;98937;-81
2022/06/07 09:56:53;;;;;;;;;;;;;;;28.00;28.28;100901.78;5023186;28;100795;-81
2022/06/07 09:59:31;;;;;;;;;;;;;;;28.36;28.16;100897.00;5016747;28;97213;-81
2022/06/07 10:02:02;;;;;;;;;;;;;;;28.62;27.91;100900.44;5027217;28;97174;-80
2022/06/07 10:04:35;;;;;;;;;;;;;;;28.48;27.39;100901.13;5034060;28;100017;-81
2022/06/07 10:07:05;;;;;;;;;;;;;;;28.52;28.73;100894.31;5007830;28;99220;-81
2022/06/07 10:09:51;;;;;;;;;;;;;;;28.39;28.51;100892.09;5016230;28;97334;-80
2022/06/07 10:12:23;;;;;;;;;;;;;;;28.18;28.04;100894.41;5015862;28;97950;-81
2022/06/07 10:14:51;;;;;;;;;;;;;;;28.23;28.19;100888.47;5014283;28;99413;-81
2022/06/07 10:17:29;;;;;;;;;;;;;;;28.16;27.62;100895.59;5020927;28;98764;-82
2022/06/07 10:20:00;;;;;;;;;;;;;;;28.21;27.75;100893.22;5019890;28;97486;-82
2022/06/07 10:22:38;;;;;;;;;;;;;;;28.48;27.54;100890.25;5021235;28;96685;-80
2022/06/07 10:25:13;;;;;;;;;;;;;;;28.60;27.14;100882.63;5023733;28;97641;-82
2022/06/07 10:27:43;;;;;;;;;;;;;;;28.83;26.88;100879.09;5012645;28;97682;-81
2022/06/07 10:30:20;;;;;;;;;;;;;;;28.83;26.85;100879.09;5025313;28;96788;-80
2022/06/07 10:32:55;;;;;;;;;;;;;;;28.52;27.55;100881.59;5029116;28;96863;-81
2022/06/07 10:35:24;;;;;;;;;;;;;;;28.40;27.89;100869.34;5027422;28;99187;-80
2022/06/07 10:38:00;;;;;;;;;;;;;;;28.35;27.82;100877.16;5019593;28;96752;-82
2022/06/07 10:40:35;;;;;;;;;;;;;;;28.26;27.27;100878.13;5015903;28;96838;-81
2022/06/07 10:43:04;;;;;;;;;;;;;;;27.99;28.50;100881.91;5012941;28;97564;-80
2022/06/07 10:45:32;;;;;;;;;;;;;;;28.08;27.83;100883.66;5013336;28;98915;-81
2022/06/07 10:48:03;;;;;;;;;;;;;;;27.77;27.82;100874.31;5017690;28;99234;-78
2022/06/07 10:50:31;;;;;;;;;;;;;;;28.10;27.85;100880.75;5013637;28;97021;-82
2022/06/07 10:53:03;;;;;;;;;;;;;;;28.07;28.38;100873.78;5016735;28;97024;-81
2022/06/07 10:55:33;;;;;;;;;;;;;;;28.09;27.88;100877.19;5017656;28;98942;-82
2022/06/07 10:58:04;;;;;;;;;;;;;;;28.31;27.60;100861.31;5019491;28;98943;-81
2022/06/07 11:00:34;;;;;;;;;;;;;;;28.46;26.91;100851.50;5013051;28;97360;-81
2022/06/07 11:03:06;;;;;;;;;;;;;;;28.73;27.18;100848.50;5020577;28;96884;-81
2022/06/07 11:11:09;;;;;;;;;;;;;;;27.89;27.36;100861.34;5008826;28;96947;-81
2022/06/07 11:13:43;;;;;;;;;;;;;;;28.23;27.18;100853.13;5017696;28;97565;-81
2022/06/07 11:16:14;;;;;;;;;;;;;;;28.13;27.73;100848.69;5019439;28;100954;-82
2022/06/07 11:18:42;;;;;;;;;;;;;;;28.40;27.29;100850.31;5022661;28;98856;-82
2022/06/07 11:21:13;;;;;;;;;;;;;;;28.46;26.37;100855.09;5013934;28;97309;-83
2022/06/07 11:23:47;;;;;;;;;;;;;;;28.66;26.14;100855.63;5005676;28;96764;-81
2022/06/07 11:26:15;;;;;;;;;;;;;;;28.34;26.75;100845.56;5002601;28;99428;-81
2022/06/07 11:28:44;;;;;;;;;;;;;;;28.65;26.60;100853.91;5014517;28;98717;-81
2022/06/07 11:31:25;;;;;;;;;;;;;;;28.29;26.19;100847.06;5005331;28;97207;-83
2022/06/07 11:34:00;;;;;;;;;;;;;;;28.63;25.44;100855.94;5022513;28;96810;-82
2022/06/07 11:36:36;;;;;;;;;;;;;;;28.23;25.33;100858.56;5008046;28;100190;-82
2022/06/07 11:39:18;;;;;;;;;;;;;;;27.85;26.02;100860.78;5010754;28;99304;-81
2022/06/07 11:41:47;;;;;;;;;;;;;;;27.90;25.90;100855.72;5016775;28;97049;-81
2022/06/07 11:44:32;;;;;;;;;;;;;;;28.00;25.81;100842.88;5013864;28;96779;-81
2022/06/07 11:47:01;;;;;;;;;;;;;;;28.35;25.44;100849.97;5010668;28;99001;-82
2022/06/07 11:49:39;;;;;;;;;;;;;;;28.34;25.59;100850.13;5016542;28;100269;-81
2022/06/07 11:52:10;;;;;;;;;;;;;;;28.69;25.20;100857.13;5021305;28;96765;-82
2022/06/07 11:54:39;;;;;;;;;;;;;;;28.70;25.91;100853.41;5027659;28;96755;-80
2022/06/07 11:57:20;;;;;;;;;;;;;;;28.54;25.89;100851.53;5018297;28;98880;-80
2022/06/07 11:59:47;;;;;;;;;;;;;;;28.28;26.57;100850.81;5013247;28;98726;-81
2022/06/07 12:02:23;;;;;;;;;;;;;;;28.32;26.57;100841.28;5013767;28;96744;-81
2022/06/07 12:05:07;;;;;;;;;;;;;;;28.93;26.07;100847.16;5016792;28;96729;-83
2022/06/07 12:07:39;;;;;;;;;;;;;;;29.71;25.87;100846.53;5005403;28;98779;-81
2022/06/07 12:10:22;;;;;;;;;;;;;;;29.78;25.87;100841.22;5016311;28;101219;-81
2022/06/07 12:12:51;;;;;;;;;;;;;;;29.69;25.44;100833.06;5013939;28;96733;-80
2022/06/07 12:15:19;;;;;;;;;;;;;;;29.80;25.44;100833.72;5013381;28;97331;-81
2022/06/07 12:17:53;;;;;;;;;;;;;;;28.70;26.41;100828.94;5008385;28;99229;-82
2022/06/07 12:20:24;;;;;;;;;;;;;;;28.87;25.18;100826.09;5021713;28;98823;-81
2022/06/07 12:22:50;;;;;;;;;;;;;;;29.14;26.37;100824.88;5010712;28;97273;-80
2022/06/07 12:25:21;;;;;;;;;;;;;;;29.63;25.39;100822.03;5024893;28;97749;-81
2022/06/07 12:27:48;;;;;;;;;;;;;;;29.80;23.79;100822.84;5015983;28;98840;-81
2022/06/07 12:30:22;;;;;;;;;;;;;;;29.86;23.29;100809.38;5019667;28;98261;-81
2022/06/07 12:32:50;;;;;;;;;;;;;;;29.75;22.77;100808.88;5020212;28;96933;-81
2022/06/07 12:35:19;;;;;;;;;;;;;;;30.11;22.08;100804.66;5025252;28;97174;-83
2022/06/07 12:37:47;;;;;;;;;;;;;;;30.41;22.10;100800.19;5013297;28;99517;-82
2022/06/07 12:40:26;;;;;;;;;;;;;;;29.86;22.60;100805.78;5009071;28;98855;-81
2022/06/07 12:42:52;;;;;;;;;;;;;;;29.73;22.69;100804.44;5008799;28;97040;-82
2022/06/07 12:45:21;;;;;;;;;;;;;;;29.14;23.03;100804.97;5016870;28;97039;-81
2022/06/07 12:47:53;;;;;;;;;;;;;;;28.73;23.66;100802.25;5001415;28;98789;-81
2022/06/07 12:50:21;;;;;;;;;;;;;;;28.40;24.10;100801.41;5022257;28;100128;-82
2022/06/07 12:52:50;;;;;;;;;;;;;;;28.58;24.30;100809.38;5016785;28;96859;-81
2022/06/07 12:55:21;;;;;;;;;;;;;;;28.65;24.09;100804.97;5018743;28;96965;-81
2022/06/07 12:57:48;;;;;;;;;;;;;;;28.82;24.22;100809.41;5012047;28;97902;-82
2022/06/07 13:00:17;;;;;;;;;;;;;;;28.86;24.22;100810.78;5010380;28;97639;-81
2022/06/07 13:02:45;;;;;;;;;;;;;;;29.54;23.67;100807.59;5023210;28;96731;-82
2022/06/07 13:05:17;;;;;;;;;;;;;;;29.81;23.16;100809.03;5005684;28;96952;-78
2022/06/07 13:07:45;;;;;;;;;;;;;;;29.98;23.01;100797.06;5008499;28;99218;-79
2022/06/07 13:10:13;;;;;;;;;;;;;;;29.76;23.68;100797.81;5003285;28;100646;-79